LCRA/AKT METAR and TAF weather

Enter ICAO airport designator
Station Type Date Time Source
LCRA METAR 2022/01/18 07:20 UTC NOAA

LCRA 180720Z 24009KT 9999 SCT030 BKN045 12/09 Q1021 NOSIG


Station Type Date Time Source
LCRA Decoded METAR 2022/01/18 07:20 UTC NOAA

Akrotiri, Cyprus (LCRA) 34-35N 032-59E 0M
Jan 18, 2022 - 02:20 AM EST / 2022.01.18 0720 UTC
Wind: from the WSW (240 degrees) at 10 MPH (9 KT):0
Visibility: greater than 7 mile(s):0
Sky conditions: mostly cloudy
Temperature: 53 F (12 C)
Dew Point: 48 F (9 C)
Relative Humidity: 81%
Pressure (altimeter): 30.15 in. Hg (1021 hPa)
ob: LCRA 180720Z 24009KT 9999 SCT030 BKN045 12/09 Q1021 NOSIG
cycle: 7

Station Type Date Time Source
LCRA TAF 2022/01/18 06:37 UTC NOAA

TAF LCRA 180434Z 1806/1824 21014KT 9999 SCT040
BECMG 1806/1808 22015G25KT
TEMPO 1809/1820 24025G35KT 5000 SHRA SCT025TCU PROB30
TEMPO 1812/1819 2000 TSRA SCT020 SCT030CB PROB40
TEMPO 1820/1822 27025G35KT
BECMG 1822/1824 29018KT

Example: see airport list